Time;durP1;ratioP1;P1;durP2;ratioP2;P2;SDS_P1;SDS_P2;PMS_P1;PMS_P2;Temp;Humidity;BMP_temperature;BMP_pressure;BME280_temperature;BME280_humidity;BME280_pressure;Samples;Min_cycle;Max_cycle;Signal;HPM_P1;HPM_P2
2022/01/26 00:05:48;;;;;;;29.97;22.50;;;4.20;97.00;;;;;;6264212;28;20486;-62
2022/01/26 00:08:54;;;;;;;30.53;21.53;;;4.30;96.80;;;;;;6249438;28;20605;-63
2022/01/26 00:11:58;;;;;;;28.83;23.00;;;4.30;96.80;;;;;;6251873;28;20474;-63
2022/01/26 00:15:01;;;;;;;29.43;22.57;;;4.30;96.80;;;;;;6255340;28;20475;-63
2022/01/26 00:18:04;;;;;;;34.23;22.67;;;4.20;96.60;;;;;;6255751;28;20528;-63
2022/01/26 00:21:13;;;;;;;27.27;21.87;;;4.30;96.60;;;;;;6249354;28;20476;-63
2022/01/26 00:27:37;;;;;;;35.23;26.03;;;4.40;96.70;;;;;;6268447;28;20470;-63
2022/01/26 00:41:04;;;;;;;31.17;24.00;;;4.40;96.60;;;;;;6253431;28;20478;-64
2022/01/26 00:44:09;;;;;;;30.20;21.87;;;4.40;96.60;;;;;;6254276;28;20545;-64
2022/01/26 00:47:14;;;;;;;28.77;23.43;;;4.50;96.60;;;;;;6255836;28;20475;-65
2022/01/26 00:50:17;;;;;;;29.73;20.17;;;4.50;96.40;;;;;;6253683;28;20565;-63
2022/01/26 00:53:24;;;;;;;30.53;22.00;;;4.50;96.40;;;;;;6253667;28;20515;-64
2022/01/26 00:56:28;;;;;;;31.40;23.17;;;4.50;96.20;;;;;;6253469;28;20467;-64
2022/01/26 00:59:32;;;;;;;30.50;23.33;;;4.40;96.20;;;;;;6254121;28;20475;-64
2022/01/26 01:02:35;;;;;;;28.37;22.67;;;4.50;96.20;;;;;;6249754;28;20470;-63
2022/01/26 01:05:45;;;;;;;41.30;24.27;;;4.50;96.10;;;;;;6253671;28;20798;-63
2022/01/26 01:08:48;;;;;;;33.53;23.33;;;4.60;96.20;;;;;;6253497;28;20478;-63
2022/01/26 01:11:56;;;;;;;30.23;21.17;;;4.60;96.00;;;;;;6253305;28;20549;-64
2022/01/26 01:15:00;;;;;;;30.47;23.20;;;4.60;96.10;;;;;;6253237;28;20471;-64
2022/01/26 01:18:10;;;;;;;31.80;23.30;;;4.70;96.00;;;;;;6253138;28;20760;-65
2022/01/26 01:28:22;;;;;;;31.23;23.83;;;4.60;96.00;;;;;;6257717;28;20454;-64
2022/01/26 01:31:41;;;;;;;35.37;24.37;;;4.60;96.00;;;;;;6231009;28;20464;-64
2022/01/26 01:34:44;;;;;;;35.17;23.53;;;4.50;96.20;;;;;;6261555;28;20808;-63
2022/01/26 01:37:47;;;;;;;31.20;23.70;;;4.50;96.10;;;;;;6263901;28;20524;-63
2022/01/26 01:40:51;;;;;;;31.70;24.00;;;4.50;96.10;;;;;;6254834;28;20486;-64
2022/01/26 01:43:54;;;;;;;33.60;25.13;;;4.50;96.10;;;;;;6231272;28;20529;-63
2022/01/26 01:46:59;;;;;;;31.53;24.33;;;4.40;96.20;;;;;;6232657;28;20530;-63
2022/01/26 01:50:07;;;;;;;32.53;24.43;;;4.30;96.40;;;;;;6229188;28;20472;-62
2022/01/26 01:53:11;;;;;;;34.83;26.97;;;4.30;96.60;;;;;;6228107;28;20468;-62
2022/01/26 01:56:17;;;;;;;31.50;23.63;;;4.20;96.70;;;;;;6228506;28;20464;-62
2022/01/26 01:59:21;;;;;;;33.20;25.17;;;4.20;96.80;;;;;;6228204;28;20815;-63
2022/01/26 02:02:25;;;;;;;37.10;28.10;;;4.10;96.90;;;;;;6228202;28;20480;-62
2022/01/26 02:05:28;;;;;;;40.50;27.93;;;4.10;97.00;;;;;;6227478;28;20622;-62
2022/01/26 02:08:31;;;;;;;45.13;28.83;;;4.10;97.10;;;;;;6222944;28;20862;-62
2022/01/26 02:11:35;;;;;;;36.77;28.30;;;4.10;97.10;;;;;;6227436;28;20488;-62
2022/01/26 02:14:43;;;;;;;41.67;29.27;;;4.10;97.20;;;;;;6227669;28;20983;-62
2022/01/26 02:18:12;;;;;;;38.37;28.60;;;4.10;97.30;;;;;;6227469;28;20497;-62
2022/01/26 02:21:36;;;;;;;42.40;29.63;;;4.10;97.40;;;;;;6227129;28;20838;-67
2022/01/26 02:51:52;;;;;;;36.00;26.27;;;3.90;97.90;;;;;;6226788;28;20541;-67
2022/01/26 02:55:14;;;;;;;38.80;26.57;;;3.90;98.00;;;;;;6226334;28;20807;-67
2022/01/26 03:01:46;;;;;;;40.23;28.13;;;3.80;98.40;;;;;;6223856;28;20472;-66
2022/01/26 03:04:52;;;;;;;37.33;27.83;;;3.80;98.10;;;;;;6226315;28;20823;-64
2022/01/26 03:07:59;;;;;;;34.93;25.53;;;3.70;98.20;;;;;;6226251;28;20483;-64
2022/01/26 03:11:07;;;;;;;37.17;26.50;;;3.70;98.20;;;;;;6225892;28;20988;-64
2022/01/26 03:14:19;;;;;;;34.07;25.27;;;3.70;98.20;;;;;;6226787;28;20526;-64
2022/01/26 03:17:38;;;;;;;32.57;23.80;;;3.70;98.30;;;;;;6226318;28;20483;-64
2022/01/26 03:20:43;;;;;;;34.00;26.30;;;3.70;98.30;;;;;;6226208;28;20476;-66
2022/01/26 03:31:04;;;;;;;38.70;26.57;;;3.60;98.60;;;;;;6226558;28;20550;-67
2022/01/26 03:34:10;;;;;;;35.50;24.83;;;3.50;98.50;;;;;;6227226;28;20854;-68
2022/01/26 03:37:14;;;;;;;35.77;24.70;;;3.50;98.50;;;;;;6226225;28;20440;-68
2022/01/26 03:40:17;;;;;;;40.20;27.37;;;3.60;98.60;;;;;;6226005;28;20951;-68
2022/01/26 03:43:21;;;;;;;40.90;29.10;;;3.60;98.60;;;;;;6226453;28;20464;-68
2022/01/26 03:46:25;;;;;;;35.57;26.17;;;3.60;98.60;;;;;;6226024;28;20479;-69
2022/01/26 03:49:28;;;;;;;31.83;24.13;;;3.60;98.60;;;;;;6227816;28;20968;-67
2022/01/26 03:52:31;;;;;;;35.27;25.00;;;3.60;98.60;;;;;;6227666;28;20480;-68
2022/01/26 03:55:34;;;;;;;37.80;27.10;;;3.60;98.60;;;;;;6227284;28;20475;-68
2022/01/26 03:58:40;;;;;;;37.83;27.40;;;3.60;98.60;;;;;;6228029;28;20471;-68
2022/01/26 04:01:43;;;;;;;39.20;25.23;;;3.50;98.60;;;;;;6230087;28;20827;-68
2022/01/26 04:04:52;;;;;;;39.10;26.90;;;3.60;98.80;;;;;;6230572;28;20476;-68
2022/01/26 04:08:00;;;;;;;38.37;28.00;;;3.60;98.80;;;;;;6230354;28;20475;-68
2022/01/26 04:11:18;;;;;;;36.47;25.93;;;3.70;98.90;;;;;;6227252;28;20964;-67
2022/01/26 04:14:27;;;;;;;37.90;26.13;;;3.70;98.70;;;;;;6217239;28;21006;-68
2022/01/26 04:17:31;;;;;;;37.23;26.57;;;3.80;98.70;;;;;;6227114;28;20814;-68
2022/01/26 04:20:39;;;;;;;36.60;27.23;;;3.80;98.70;;;;;;6226562;28;20488;-67
2022/01/26 04:23:49;;;;;;;34.47;26.43;;;3.80;98.70;;;;;;6226299;28;20506;-68
2022/01/26 04:26:57;;;;;;;33.20;23.87;;;3.80;98.70;;;;;;6227581;28;20467;-68
2022/01/26 04:30:01;;;;;;;36.37;25.80;;;3.90;98.60;;;;;;6227038;28;20602;-69
2022/01/26 04:33:05;;;;;;;35.30;26.50;;;3.90;98.60;;;;;;6227398;28;20515;-68
2022/01/26 04:36:12;;;;;;;32.70;25.60;;;3.90;98.50;;;;;;6228078;28;20480;-68
2022/01/26 04:39:20;;;;;;;34.23;24.93;;;3.90;98.40;;;;;;6227789;28;20479;-67
2022/01/26 04:42:32;;;;;;;33.13;26.07;;;3.90;98.20;;;;;;6227584;28;20519;-65
2022/01/26 04:45:36;;;;;;;32.53;25.93;;;3.90;98.20;;;;;;6225215;28;20530;-63
2022/01/26 04:48:39;;;;;;;34.73;24.07;;;3.90;98.50;;;;;;6224913;28;20803;-63
2022/01/26 04:51:43;;;;;;;39.47;27.83;;;4.00;98.30;;;;;;6224989;28;20486;-67
2022/01/26 04:54:46;;;;;;;38.10;26.50;;;3.90;98.20;;;;;;6224478;28;20480;-68
2022/01/26 04:57:49;;;;;;;35.47;25.80;;;4.00;98.20;;;;;;6224780;28;20471;-68
2022/01/26 05:00:53;;;;;;;34.33;28.30;;;4.00;98.20;;;;;;6228686;28;20487;-63
2022/01/26 05:03:57;;;;;;;33.00;24.80;;;4.00;98.20;;;;;;6228690;28;20475;-63
2022/01/26 05:07:00;;;;;;;35.90;26.03;;;4.00;98.10;;;;;;6228859;28;20474;-64
2022/01/26 05:10:04;;;;;;;33.53;24.63;;;4.00;98.00;;;;;;6229035;28;20475;-63
2022/01/26 05:13:08;;;;;;;36.30;26.07;;;4.00;98.00;;;;;;6228671;28;20479;-64
2022/01/26 05:16:12;;;;;;;32.47;23.67;;;4.10;97.80;;;;;;6222761;28;20884;-64
2022/01/26 05:19:16;;;;;;;34.00;26.10;;;4.10;97.70;;;;;;6228278;28;20822;-65
2022/01/26 05:22:19;;;;;;;40.20;26.50;;;4.10;97.60;;;;;;6228581;28;20920;-65
2022/01/26 05:25:22;;;;;;;31.50;24.47;;;4.10;97.60;;;;;;6228589;28;20456;-66
2022/01/26 05:28:25;;;;;;;32.13;24.30;;;4.20;97.70;;;;;;6228843;28;20464;-68
2022/01/26 05:31:29;;;;;;;31.33;24.27;;;4.20;97.60;;;;;;6228033;28;20860;-67
2022/01/26 05:34:33;;;;;;;30.53;23.70;;;4.20;97.60;;;;;;6228358;28;20774;-68
2022/01/26 05:37:36;;;;;;;33.33;24.07;;;4.20;97.50;;;;;;6228535;28;20479;-68
2022/01/26 05:40:39;;;;;;;32.53;23.30;;;4.20;97.90;;;;;;6228046;28;20557;-67
2022/01/26 05:43:42;;;;;;;30.97;22.53;;;4.00;97.70;;;;;;6228437;28;20471;-67
2022/01/26 05:46:49;;;;;;;29.23;23.00;;;4.00;97.60;;;;;;6228491;28;20602;-68
2022/01/26 05:49:52;;;;;;;30.23;20.60;;;4.00;97.70;;;;;;6228861;28;20661;-67
2022/01/26 05:52:55;;;;;;;28.03;20.90;;;4.00;97.70;;;;;;6228054;28;20478;-67
2022/01/26 05:55:59;;;;;;;29.40;21.80;;;4.00;97.50;;;;;;6227811;28;20487;-67
2022/01/26 05:59:02;;;;;;;30.80;20.70;;;4.00;97.60;;;;;;6227748;28;20479;-64
2022/01/26 06:02:07;;;;;;;30.00;22.20;;;4.00;97.60;;;;;;6228019;28;20952;-63
2022/01/26 06:05:10;;;;;;;29.47;20.77;;;3.90;97.50;;;;;;6227784;28;20947;-63
2022/01/26 06:08:13;;;;;;;29.83;20.30;;;3.80;97.70;;;;;;6228062;28;20480;-64
2022/01/26 06:11:18;;;;;;;32.20;22.33;;;3.80;97.80;;;;;;6227455;28;20480;-68
2022/01/26 06:14:21;;;;;;;30.70;20.80;;;3.90;97.90;;;;;;6227602;28;20476;-68
2022/01/26 06:17:26;;;;;;;27.07;19.77;;;3.90;97.90;;;;;;6227754;28;20578;-68
2022/01/26 06:20:29;;;;;;;25.57;17.53;;;3.90;97.60;;;;;;6227549;28;20479;-64
2022/01/26 06:23:32;;;;;;;22.17;18.10;;;3.90;97.10;;;;;;6230570;28;20464;-64
2022/01/26 06:26:36;;;;;;;29.43;20.30;;;3.90;97.10;;;;;;6227445;28;20468;-68
2022/01/26 06:29:39;;;;;;;25.50;18.00;;;4.00;97.10;;;;;;6227677;28;20480;-68
2022/01/26 06:32:44;;;;;;;21.23;15.83;;;4.00;97.00;;;;;;6228210;28;20480;-65
2022/01/26 06:35:47;;;;;;;18.93;15.40;;;4.10;96.90;;;;;;6227214;28;20483;-64
2022/01/26 06:38:50;;;;;;;23.57;16.50;;;4.10;96.50;;;;;;6227044;28;20468;-63
2022/01/26 06:41:55;;;;;;;25.17;18.50;;;4.20;96.30;;;;;;6226345;28;20537;-64
2022/01/26 06:45:10;;;;;;;28.70;16.53;;;4.30;96.20;;;;;;6227081;28;20478;-64
2022/01/26 06:48:39;;;;;;;22.50;17.83;;;4.30;96.10;;;;;;6226549;28;20476;-64
2022/01/26 06:51:42;;;;;;;23.30;16.30;;;4.30;95.80;;;;;;6228073;28;20968;-67
2022/01/26 06:54:46;;;;;;;27.67;16.40;;;4.30;95.80;;;;;;6227165;28;20491;-67
2022/01/26 06:57:49;;;;;;;19.17;16.00;;;4.40;95.80;;;;;;6227110;28;20487;-67
2022/01/26 07:00:52;;;;;;;30.30;21.40;;;4.40;95.70;;;;;;6227861;28;20475;-69
2022/01/26 07:03:56;;;;;;;24.70;17.20;;;4.40;95.50;;;;;;6234487;28;20464;-66
2022/01/26 07:07:00;;;;;;;20.80;14.80;;;4.50;95.40;;;;;;6236080;28;20472;-66
2022/01/26 07:10:03;;;;;;;24.13;16.87;;;4.50;95.30;;;;;;6233690;28;20468;-64
2022/01/26 07:13:06;;;;;;;23.37;17.90;;;4.60;95.30;;;;;;6228185;28;20510;-64
2022/01/26 07:19:52;;;;;;;23.43;14.93;;;4.60;95.20;;;;;;6233403;28;20496;-63
2022/01/26 07:22:55;;;;;;;28.50;20.67;;;4.60;95.10;;;;;;6230066;28;20475;-68
2022/01/26 07:25:58;;;;;;;27.97;19.40;;;4.40;95.50;;;;;;6220549;28;20483;-68
2022/01/26 07:29:07;;;;;;;22.70;17.40;;;4.40;96.00;;;;;;6227671;28;20486;-62
2022/01/26 07:32:10;;;;;;;25.90;18.20;;;4.40;96.20;;;;;;6202624;28;20472;-63
2022/01/26 07:35:15;;;;;;;26.80;17.43;;;4.40;96.10;;;;;;6204371;28;20472;-66
2022/01/26 07:38:18;;;;;;;23.20;17.60;;;4.40;96.00;;;;;;6202507;28;20972;-66
2022/01/26 07:41:22;;;;;;;28.90;20.67;;;4.40;95.70;;;;;;6211391;28;20845;-66
2022/01/26 07:44:25;;;;;;;28.43;20.20;;;4.50;96.10;;;;;;6213936;28;20473;-67
2022/01/26 07:47:30;;;;;;;31.97;22.77;;;4.40;96.40;;;;;;6212058;28;20483;-67
2022/01/26 07:50:36;;;;;;;25.50;19.90;;;4.30;96.70;;;;;;6210480;28;20481;-67
2022/01/26 07:53:39;;;;;;;27.53;20.20;;;4.30;96.90;;;;;;6222159;28;20491;-66
2022/01/26 07:56:43;;;;;;;29.17;21.60;;;4.30;96.90;;;;;;6247457;28;20501;-67
2022/01/26 07:59:47;;;;;;;28.90;21.93;;;4.30;96.90;;;;;;6244525;28;20493;-68
2022/01/26 08:02:50;;;;;;;27.33;21.53;;;4.40;97.10;;;;;;6246197;28;20467;-65
2022/01/26 08:05:55;;;;;;;28.07;22.67;;;4.30;97.10;;;;;;6253618;28;20942;-65
2022/01/26 08:08:58;;;;;;;28.43;21.43;;;4.30;97.30;;;;;;6255999;28;20486;-67
2022/01/26 08:12:02;;;;;;;27.90;21.60;;;4.30;97.50;;;;;;6234732;28;20486;-67
2022/01/26 08:15:07;;;;;;;19.47;13.73;;;4.10;97.10;;;;;;6233309;28;20476;-66
2022/01/26 08:18:10;;;;;;;17.50;12.30;;;4.20;96.60;;;;;;6234385;28;20494;-66
2022/01/26 08:21:18;;;;;;;20.93;13.97;;;4.10;96.00;;;;;;6231631;28;20476;-63
2022/01/26 08:24:22;;;;;;;30.93;20.40;;;4.20;96.50;;;;;;6229545;28;20554;-63
2022/01/26 08:27:28;;;;;;;30.27;22.30;;;4.30;96.60;;;;;;6237559;28;20475;-66
2022/01/26 08:30:35;;;;;;;30.63;22.80;;;4.40;96.80;;;;;;6263809;28;20512;-65
2022/01/26 08:33:39;;;;;;;28.90;21.60;;;4.40;96.70;;;;;;6282087;28;20490;-66
2022/01/26 08:36:43;;;;;;;24.10;18.80;;;4.30;96.70;;;;;;6285715;28;20469;-65
2022/01/26 08:39:47;;;;;;;28.40;19.93;;;4.30;96.70;;;;;;6261117;28;20477;-65
2022/01/26 08:42:50;;;;;;;28.77;22.27;;;4.30;96.70;;;;;;6258795;28;20467;-64
2022/01/26 08:45:57;;;;;;;30.30;21.50;;;4.30;96.80;;;;;;6258695;28;20561;-65
2022/01/26 08:49:01;;;;;;;27.23;21.70;;;4.30;97.00;;;;;;6260382;28;20446;-65
2022/01/26 08:52:06;;;;;;;31.70;22.53;;;4.30;97.20;;;;;;6260034;28;20451;-65
2022/01/26 08:55:10;;;;;;;27.53;19.70;;;4.30;97.10;;;;;;6274836;28;20485;-64
2022/01/26 09:17:02;;;;;;;27.40;20.90;;;4.30;96.80;;;;;;6296178;28;20346;-65
2022/01/26 09:20:07;;;;;;;26.63;20.83;;;5.20;95.10;;;;;;6295879;28;20484;-65
2022/01/26 09:23:10;;;;;;;27.07;20.63;;;5.20;95.30;;;;;;6296203;28;20465;-63
2022/01/26 09:26:14;;;;;;;31.00;22.67;;;5.10;95.40;;;;;;6294976;28;20480;-62
2022/01/26 09:29:17;;;;;;;31.53;23.70;;;5.10;95.60;;;;;;6295622;28;20469;-63
2022/01/26 09:32:22;;;;;;;30.03;23.20;;;5.10;95.90;;;;;;6296013;28;20469;-63
2022/01/26 09:35:26;;;;;;;30.73;23.87;;;5.10;96.10;;;;;;6295824;28;20954;-63
2022/01/26 09:38:29;;;;;;;30.70;22.70;;;5.20;96.20;;;;;;6296003;28;20476;-63
2022/01/26 09:41:32;;;;;;;30.57;22.57;;;5.30;95.70;;;;;;6296038;28;20484;-63
2022/01/26 09:44:36;;;;;;;28.07;21.00;;;5.30;95.50;;;;;;6295394;28;20484;-64
2022/01/26 09:47:41;;;;;;;35.53;24.40;;;5.30;95.10;;;;;;6295554;28;20783;-65
2022/01/26 09:51:04;;;;;;;32.23;24.27;;;5.20;95.00;;;;;;6294871;28;20533;-65
2022/01/26 09:54:11;;;;;;;31.43;22.57;;;5.10;95.40;;;;;;6294187;28;20472;-65
2022/01/26 09:57:14;;;;;;;32.20;24.40;;;5.20;95.50;;;;;;6293799;28;20469;-67
2022/01/26 10:00:18;;;;;;;26.90;20.87;;;5.20;95.40;;;;;;6294102;28;20499;-66
2022/01/26 10:03:28;;;;;;;31.53;23.10;;;5.30;95.40;;;;;;6293826;28;20485;-64
2022/01/26 10:06:33;;;;;;;33.23;22.57;;;5.30;94.70;;;;;;6284874;28;21021;-64
2022/01/26 10:09:48;;;;;;;26.00;20.20;;;5.20;94.80;;;;;;6294295;28;20485;-64
2022/01/26 10:16:58;;;;;;;28.67;20.03;;;5.20;94.50;;;;;;6240439;28;20478;-64
2022/01/26 10:20:04;;;;;;;25.43;20.60;;;5.10;94.50;;;;;;6277297;28;20489;-64
2022/01/26 10:23:08;;;;;;;27.30;20.03;;;5.20;94.90;;;;;;6278475;28;20478;-64
2022/01/26 10:26:13;;;;;;;25.83;19.40;;;5.20;94.30;;;;;;6278122;28;20474;-64
2022/01/26 10:29:17;;;;;;;27.83;20.30;;;4.90;94.70;;;;;;6277538;28;20802;-65
2022/01/26 10:32:20;;;;;;;28.60;21.47;;;4.60;94.90;;;;;;6268361;28;20474;-65
2022/01/26 10:35:25;;;;;;;26.53;20.90;;;4.70;95.20;;;;;;6267000;28;20471;-65
2022/01/26 10:38:28;;;;;;;29.47;21.10;;;4.80;95.20;;;;;;6253168;28;20479;-65
2022/01/26 10:41:31;;;;;;;28.97;20.80;;;4.70;94.90;;;;;;6254300;28;20490;-63
2022/01/26 10:44:36;;;;;;;30.00;21.83;;;4.70;95.20;;;;;;6277623;28;20477;-65
2022/01/26 10:47:45;;;;;;;29.70;20.97;;;4.60;95.30;;;;;;6277318;28;20810;-63
2022/01/26 10:51:31;;;;;;;26.97;19.23;;;4.60;95.20;;;;;;6277187;28;20450;-62
2022/01/26 10:54:37;;;;;;;28.60;19.57;;;4.70;95.00;;;;;;6277161;28;20539;-62
2022/01/26 10:57:40;;;;;;;28.90;20.33;;;4.50;95.20;;;;;;6277887;28;20561;-64
2022/01/26 11:00:44;;;;;;;28.37;19.73;;;4.40;95.70;;;;;;6278122;28;20470;-64
2022/01/26 11:03:48;;;;;;;27.80;18.30;;;4.60;95.60;;;;;;6277810;28;20545;-63
2022/01/26 11:06:54;;;;;;;21.50;16.80;;;4.70;95.30;;;;;;6277193;28;20813;-69
2022/01/26 11:10:02;;;;;;;26.00;18.40;;;4.70;95.00;;;;;;6273394;28;20479;-63
2022/01/26 11:13:07;;;;;;;26.50;18.40;;;4.90;94.80;;;;;;6258093;28;20470;-63
2022/01/26 11:16:12;;;;;;;26.43;20.70;;;5.00;94.60;;;;;;6251194;28;20475;-63
2022/01/26 11:19:16;;;;;;;25.60;19.40;;;4.90;94.40;;;;;;6250207;28;20482;-64
2022/01/26 11:22:26;;;;;;;31.77;20.87;;;5.00;94.70;;;;;;6249199;28;20586;-64
2022/01/26 11:25:39;;;;;;;26.87;20.87;;;5.10;94.50;;;;;;6250305;28;20790;-64
2022/01/26 11:28:46;;;;;;;26.87;18.90;;;5.20;94.30;;;;;;6250896;28;20489;-64
2022/01/26 11:32:01;;;;;;;30.83;20.67;;;5.20;94.20;;;;;;6251193;28;20487;-63
2022/01/26 11:35:08;;;;;;;24.70;19.50;;;5.30;94.30;;;;;;6251925;28;20511;-64
2022/01/26 11:39:13;;;;;;;24.37;18.53;;;5.30;94.00;;;;;;6251387;28;20479;-64
2022/01/26 11:42:21;;;;;;;28.47;18.90;;;5.40;93.60;;;;;;6251535;28;20487;-64
2022/01/26 11:45:34;;;;;;;26.13;19.70;;;5.40;93.40;;;;;;6251089;28;20983;-64
2022/01/26 11:48:38;;;;;;;32.37;21.70;;;5.30;93.20;;;;;;6252410;28;20475;-63
2022/01/26 11:51:44;;;;;;;35.07;20.97;;;5.00;93.80;;;;;;6251069;28;20490;-64
2022/01/26 11:54:52;;;;;;;26.50;19.70;;;5.10;94.10;;;;;;6251371;28;20471;-63
2022/01/26 11:58:10;;;;;;;25.43;20.00;;;5.10;93.90;;;;;;6251321;28;20928;-63
2022/01/26 12:01:19;;;;;;;30.40;19.53;;;5.20;94.10;;;;;;6250982;28;20805;-64
2022/01/26 12:04:24;;;;;;;28.33;20.00;;;5.30;94.00;;;;;;6250725;28;20811;-63
2022/01/26 12:07:29;;;;;;;27.50;19.87;;;5.30;93.80;;;;;;6251379;28;20478;-63
2022/01/26 12:10:36;;;;;;;29.90;20.40;;;5.40;93.60;;;;;;6250069;28;20823;-64
2022/01/26 12:13:40;;;;;;;27.53;20.40;;;5.50;93.70;;;;;;6269756;28;20478;-64
2022/01/26 12:16:47;;;;;;;26.83;20.03;;;5.60;93.30;;;;;;6275109;28;20485;-64
2022/01/26 12:20:11;;;;;;;32.93;20.83;;;5.70;93.10;;;;;;6275436;28;20516;-64
2022/01/26 12:33:59;;;;;;;34.57;21.17;;;5.60;92.90;;;;;;6274996;28;20478;-63
2022/01/26 12:37:11;;;;;;;27.90;19.50;;;5.50;92.80;;;;;;6274858;28;20478;-63
2022/01/26 12:43:38;;;;;;;32.20;21.40;;;5.40;92.80;;;;;;6274858;28;20466;-63
2022/01/26 12:46:42;;;;;;;26.53;20.53;;;5.50;92.90;;;;;;6275266;28;20469;-64
2022/01/26 12:49:46;;;;;;;30.50;18.80;;;5.60;92.80;;;;;;6274906;28;20473;-63
2022/01/26 12:52:52;;;;;;;30.17;20.60;;;5.70;92.50;;;;;;6275136;28;20473;-63
2022/01/26 12:55:57;;;;;;;28.83;20.57;;;5.80;92.20;;;;;;6279651;28;20482;-63
2022/01/26 12:59:05;;;;;;;26.20;19.00;;;5.90;92.00;;;;;;6279809;28;20466;-64
2022/01/26 13:02:08;;;;;;;25.67;20.53;;;6.00;91.90;;;;;;6279487;28;20470;-63
2022/01/26 13:05:14;;;;;;;27.30;18.77;;;6.10;91.90;;;;;;6276284;28;20512;-63
2022/01/26 13:08:17;;;;;;;29.13;20.10;;;6.10;91.70;;;;;;6278367;28;20466;-63
2022/01/26 13:11:25;;;;;;;27.83;20.43;;;6.10;91.40;;;;;;6278133;28;20478;-63
2022/01/26 13:14:32;;;;;;;29.20;20.60;;;6.20;91.50;;;;;;6269542;28;20481;-63
2022/01/26 13:17:41;;;;;;;25.93;20.17;;;5.90;91.40;;;;;;6275751;28;20474;-63
2022/01/26 13:21:03;;;;;;;27.37;20.80;;;5.90;91.70;;;;;;6272792;28;20474;-62
2022/01/26 13:24:26;;;;;;;24.53;18.77;;;6.00;91.70;;;;;;6274028;28;20511;-62
2022/01/26 13:27:40;;;;;;;28.47;19.50;;;6.00;91.20;;;;;;6274213;28;20474;-61
2022/01/26 13:31:00;;;;;;;25.33;19.83;;;5.90;90.90;;;;;;6274451;28;20470;-61
2022/01/26 13:37:40;;;;;;;27.00;19.23;;;5.60;91.80;;;;;;6266329;28;20840;-61
2022/01/26 13:41:01;;;;;;;27.13;19.13;;;5.60;91.60;;;;;;6275478;28;20478;-62
2022/01/26 13:44:35;;;;;;;34.30;20.93;;;5.60;91.70;;;;;;6265820;28;20501;-63
2022/01/26 13:48:13;;;;;;;30.50;20.93;;;5.80;91.70;;;;;;6258882;28;20478;-62
2022/01/26 13:51:21;;;;;;;28.10;19.17;;;5.80;91.30;;;;;;6270284;28;20481;-62
2022/01/26 13:54:43;;;;;;;24.53;19.27;;;5.70;91.40;;;;;;6278807;28;20969;-64
2022/01/26 13:58:06;;;;;;;25.33;19.13;;;5.70;91.30;;;;;;6279504;28;20470;-63
2022/01/26 14:01:17;;;;;;;24.13;19.33;;;5.70;91.20;;;;;;6254993;28;20486;-61
2022/01/26 14:04:22;;;;;;;25.00;19.70;;;5.60;91.10;;;;;;6253902;28;20552;-63
2022/01/26 14:07:25;;;;;;;30.43;20.23;;;5.70;91.40;;;;;;6253642;28;20815;-62
2022/01/26 14:10:28;;;;;;;27.13;20.70;;;5.60;91.50;;;;;;6253816;28;20482;-63
2022/01/26 14:13:33;;;;;;;27.23;20.10;;;5.60;91.70;;;;;;6271166;28;20473;-63
2022/01/26 14:16:40;;;;;;;26.20;19.57;;;5.60;91.60;;;;;;6279708;28;20959;-63
2022/01/26 14:20:08;;;;;;;27.27;19.37;;;5.70;91.40;;;;;;6278203;28;20481;-63
2022/01/26 14:26:32;;;;;;;30.40;20.43;;;5.70;91.30;;;;;;6278006;28;20477;-63
2022/01/26 14:29:56;;;;;;;25.57;19.10;;;5.60;91.50;;;;;;6277748;28;20481;-63
2022/01/26 14:36:46;;;;;;;29.47;20.90;;;5.60;91.50;;;;;;6270950;28;20989;-62
2022/01/26 15:00:31;;;;;;;27.10;19.03;;;5.00;92.60;;;;;;6276495;28;20462;-63
2022/01/26 15:31:25;;;;;;;27.73;19.40;;;4.80;93.30;;;;;;6278224;28;20466;-64
2022/01/26 15:34:38;;;;;;;31.40;22.33;;;4.60;93.30;;;;;;6275583;28;20492;-64
2022/01/26 15:41:34;;;;;;;27.30;20.27;;;4.30;93.70;;;;;;6276014;28;20540;-64
2022/01/26 15:44:47;;;;;;;32.63;20.73;;;4.30;94.00;;;;;;6276316;28;20524;-66
2022/01/26 15:51:22;;;;;;;28.83;21.60;;;4.20;94.50;;;;;;6268213;28;20471;-65
2022/01/26 15:58:11;;;;;;;34.13;22.60;;;4.20;94.40;;;;;;6249722;28;20479;-65
2022/01/26 16:05:01;;;;;;;31.53;20.67;;;4.00;94.80;;;;;;6251177;28;20543;-64
2022/01/26 16:08:13;;;;;;;31.50;21.20;;;4.00;94.90;;;;;;6252231;28;20471;-65
2022/01/26 16:21:27;;;;;;;33.60;22.57;;;3.90;95.30;;;;;;6240462;28;20490;-65
2022/01/26 16:38:21;;;;;;;30.10;21.43;;;3.70;95.80;;;;;;6257956;28;20494;-65
2022/01/26 16:52:43;;;;;;;31.97;20.80;;;3.70;95.80;;;;;;6247941;28;20478;-65
2022/01/26 17:03:17;;;;;;;33.17;22.23;;;3.80;96.00;;;;;;6223363;28;20478;-66
2022/01/26 17:46:39;;;;;;;34.33;23.60;;;3.60;96.20;;;;;;6280918;28;20470;-66
2022/01/26 17:47:08;;;;;;;38.57;24.07;;;3.60;96.20;;;;;;6282218;28;20477;-65
2022/01/26 18:07:22;;;;;;;43.17;25.10;;;3.80;95.90;;;;;;6280437;28;20474;-65
2022/01/26 18:17:45;;;;;;;37.13;23.13;;;3.60;96.50;;;;;;6278923;28;20975;-66
2022/01/26 18:51:40;;;;;;;37.70;24.37;;;3.80;96.20;;;;;;6253198;28;20487;-64
2022/01/26 18:54:43;;;;;;;36.03;25.00;;;3.80;96.00;;;;;;6253714;28;20467;-65
2022/01/26 18:57:47;;;;;;;39.23;27.30;;;3.80;96.10;;;;;;6252952;28;20467;-64
2022/01/26 19:00:50;;;;;;;34.50;25.33;;;3.70;96.10;;;;;;6252622;28;20476;-64
2022/01/26 19:03:54;;;;;;;31.70;24.00;;;3.60;96.30;;;;;;6252107;28;20476;-64
2022/01/26 19:06:59;;;;;;;34.20;23.70;;;3.60;96.40;;;;;;6252218;28;20478;-64
2022/01/26 19:10:04;;;;;;;37.77;26.60;;;3.50;96.40;;;;;;6251847;28;20871;-64
2022/01/26 19:13:07;;;;;;;32.73;22.13;;;3.60;96.50;;;;;;6265986;28;20470;-63
2022/01/26 19:16:19;;;;;;;35.60;26.10;;;3.60;96.50;;;;;;6276674;28;20549;-65
2022/01/26 19:19:30;;;;;;;33.10;24.43;;;3.60;96.40;;;;;;6276804;28;20482;-65
2022/01/26 19:22:57;;;;;;;32.83;23.77;;;3.60;96.40;;;;;;6276110;28;20487;-65
2022/01/26 19:26:05;;;;;;;41.20;27.57;;;3.50;96.50;;;;;;6276217;28;20478;-66
2022/01/26 19:29:17;;;;;;;39.40;27.13;;;3.50;96.60;;;;;;6276578;28;20623;-66
2022/01/26 19:46:02;;;;;;;39.60;27.77;;;3.50;97.70;;;;;;6259228;28;20539;-70
2022/01/26 19:52:26;;;;;;;41.60;27.20;;;3.40;97.40;;;;;;6252003;28;20562;-66
2022/01/26 19:55:31;;;;;;;39.80;27.33;;;3.40;97.10;;;;;;6251583;28;20471;-65
2022/01/26 19:58:35;;;;;;;38.27;25.60;;;3.40;97.10;;;;;;6251231;28;20531;-66
2022/01/26 20:01:38;;;;;;;41.40;27.03;;;3.40;97.10;;;;;;6250737;28;20474;-65
2022/01/26 20:04:41;;;;;;;41.90;25.90;;;3.40;97.10;;;;;;6250685;28;20475;-66
2022/01/26 20:07:49;;;;;;;37.20;25.00;;;3.50;97.10;;;;;;6250343;28;20477;-66
2022/01/26 20:10:58;;;;;;;39.60;25.00;;;3.40;96.90;;;;;;6250732;28;20471;-67
2022/01/26 20:14:02;;;;;;;36.13;26.90;;;3.30;96.90;;;;;;6271919;28;20967;-65
2022/01/26 20:17:07;;;;;;;38.70;26.60;;;3.30;97.60;;;;;;6275179;28;20474;-66
2022/01/26 20:20:14;;;;;;;35.83;24.27;;;3.30;97.30;;;;;;6274688;28;20466;-65
2022/01/26 20:23:18;;;;;;;38.50;25.57;;;3.40;97.20;;;;;;6275028;28;20474;-66
2022/01/26 20:26:23;;;;;;;37.40;26.23;;;3.40;97.00;;;;;;6273595;28;20498;-66
2022/01/26 20:29:33;;;;;;;44.13;28.03;;;3.50;96.80;;;;;;6274426;28;20485;-67
2022/01/26 20:32:37;;;;;;;39.67;26.73;;;3.60;96.90;;;;;;6274643;28;20982;-65
2022/01/26 20:35:40;;;;;;;39.13;27.27;;;3.60;96.80;;;;;;6274770;28;20466;-65
2022/01/26 20:38:44;;;;;;;42.20;27.07;;;3.50;96.60;;;;;;6261355;28;20470;-66
2022/01/26 20:41:49;;;;;;;37.70;27.30;;;3.40;97.00;;;;;;6253840;28;20480;-66
2022/01/26 20:44:52;;;;;;;43.43;25.70;;;3.40;97.10;;;;;;6275399;28;20565;-66
2022/01/26 20:47:57;;;;;;;39.47;25.93;;;3.40;96.90;;;;;;6275099;28;20461;-66
2022/01/26 20:51:01;;;;;;;39.53;25.33;;;3.30;96.90;;;;;;6274517;28;20462;-67
2022/01/26 20:54:08;;;;;;;42.03;27.83;;;3.40;97.10;;;;;;6274878;28;20434;-67
2022/01/26 20:57:13;;;;;;;38.57;27.93;;;3.40;96.90;;;;;;6274683;28;20462;-67
2022/01/26 21:00:19;;;;;;;39.33;26.67;;;3.40;96.80;;;;;;6275119;28;20474;-67
2022/01/26 21:03:23;;;;;;;43.27;26.90;;;3.40;96.90;;;;;;6274531;28;20477;-68
2022/01/26 21:06:26;;;;;;;44.50;27.20;;;3.30;96.80;;;;;;6258597;28;20557;-64
2022/01/26 21:09:29;;;;;;;40.87;26.97;;;3.30;97.00;;;;;;6250767;28;20475;-64
2022/01/26 21:12:35;;;;;;;37.23;23.23;;;3.20;97.30;;;;;;6259454;28;20684;-65
2022/01/26 21:15:38;;;;;;;37.03;24.60;;;3.10;97.00;;;;;;6274395;28;20493;-65
2022/01/26 21:18:41;;;;;;;37.03;25.20;;;3.00;97.20;;;;;;6274197;28;20978;-65
2022/01/26 21:21:44;;;;;;;40.63;25.70;;;3.00;97.40;;;;;;6274076;28;21161;-65
2022/01/26 21:25:08;;;;;;;38.33;25.50;;;3.10;97.50;;;;;;6274383;28;20462;-65
2022/01/26 21:28:13;;;;;;;34.57;25.37;;;3.10;97.40;;;;;;6274350;28;20478;-66